Portada
METAR-TAF:

METAR-TAF

Aeroports :

Piacenza, Itàlia

latitud: 44-55N, longitud: 009-44E, altitud: 134 m

Observació

L'informe es va fer fa 4 hores i 52 minuts, a les 17:55 UTC
Vent 6 kt del Sud, variant entre Est/Sud-Est i Oest/Sud-Oest
Temperatura 28°C
Humitat 66%
Pressió 1016 hPa
Visibilitat 10 km o més
Escasses núvols a una alçada de 4000 ft
Núvols disperses a una alçada de 5000 ft, Cumulonimbus.
tempesta

METAR: LIMS 241755Z 18006KT 110V240 9999 TS FEW040 SCT050CB 28/21 Q1016 RMK SCT VIS MIN 9999 WIND THR30 12004KT BLU

Hora: 00:47 (22:47 UTC)


TAF: manca

Observacions i pronòstics meteorològics de més de 4000 aeroports (METAR i TAF).

Les estacions disponibles són els punts grocs i vermells al mapa.

Posi el ratolí al punt desitjat per veure el nom de l'estació.

Feu clic per veure les observacions i els pronòstics meteorològics.

Per canviar el mapa: feu clic els botons verds amb una creu de color negre per apropar; al botó verd amb un guió per allunyar la imatge; o en les fletxes verdes per a mapes adjacents.


METAR-TAF: